Time,TemperatureF,DewpointF,PressureIn,WindDirection,WindDirectionDegrees,WindSpeedMPH,WindSpeedGustMPH,Humidity,HourlyPrecipIn,Conditions,Clouds,dailyrainin,SoftwareType,DateUTC
2013-04-10 00:07:00,40.1,39.0,29.89,ENE,62,4.0,19.0,96,0.00,,,0.00,weatherlink.com 1.10,2013-04-10 05:07:00,
2013-04-10 00:22:00,39.8,39.0,29.88,ENE,61,12.0,24.0,97,0.01,,,0.01,weatherlink.com 1.10,2013-04-10 05:22:00,
2013-04-10 00:37:00,39.8,39.0,29.91,NE,44,8.0,13.0,97,0.01,,,0.01,weatherlink.com 1.10,2013-04-10 05:37:00,
2013-04-10 00:52:00,39.8,39.0,29.92,NNE,18,7.0,12.0,97,0.02,,,0.02,weatherlink.com 1.10,2013-04-10 05:52:00,
2013-04-10 01:07:00,39.7,39.0,29.92,NE,46,8.0,14.0,97,0.02,,,0.03,weatherlink.com 1.10,2013-04-10 06:07:00,
2013-04-10 01:22:00,39.4,39.0,29.92,NNE,18,2.0,10.0,98,0.03,,,0.04,weatherlink.com 1.10,2013-04-10 06:22:00,
2013-04-10 01:37:00,39.3,39.0,29.90,ENE,67,12.0,20.0,97,0.04,,,0.05,weatherlink.com 1.10,2013-04-10 06:37:00,
2013-04-10 01:52:00,39.1,38.0,29.88,ENE,73,13.0,18.0,97,0.03,,,0.05,weatherlink.com 1.10,2013-04-10 06:52:00,
2013-04-10 02:07:00,39.1,38.0,29.87,East,91,10.0,18.0,97,0.02,,,0.05,weatherlink.com 1.10,2013-04-10 07:07:00,
2013-04-10 02:37:00,39.1,38.0,29.88,NNE,33,9.0,14.0,96,0.00,,,0.05,weatherlink.com 1.10,2013-04-10 07:37:00,
2013-04-10 02:52:00,38.9,38.0,29.85,ENE,60,8.0,20.0,96,0.00,,,0.05,weatherlink.com 1.10,2013-04-10 07:52:00,
2013-04-10 03:07:00,38.6,37.0,29.84,NNE,29,7.0,22.0,95,0.00,,,0.05,weatherlink.com 1.10,2013-04-10 08:07:00,
2013-04-10 03:22:00,38.7,37.0,29.96,North,349,10.0,22.0,95,0.00,,,0.05,weatherlink.com 1.10,2013-04-10 08:22:00,
2013-04-10 03:37:00,37.9,37.0,29.95,North,8,12.0,17.0,96,0.09,,,0.14,weatherlink.com 1.10,2013-04-10 08:37:00,
2013-04-10 03:52:00,35.9,35.0,29.94,ENE,63,14.0,20.0,98,0.21,,,0.26,weatherlink.com 1.10,2013-04-10 08:52:00,
2013-04-10 04:07:00,35.2,35.0,30.01,NNE,27,3.0,19.0,99,0.27,,,0.32,weatherlink.com 1.10,2013-04-10 09:07:00,
2013-04-10 04:22:00,34.4,34.0,29.95,ENE,66,17.0,22.0,99,0.51,,,0.56,weatherlink.com 1.10,2013-04-10 09:22:00,
2013-04-10 04:37:00,34.1,34.0,29.93,NE,39,7.0,21.0,100,0.46,,,0.61,weatherlink.com 1.10,2013-04-10 09:37:00,
2013-04-10 04:52:00,34.2,34.0,29.90,NE,44,16.0,25.0,100,0.40,,,0.67,weatherlink.com 1.10,2013-04-10 09:52:00,
2013-04-10 05:07:00,34.2,34.0,29.83,East,89,17.0,28.0,100,0.39,,,0.72,weatherlink.com 1.10,2013-04-10 10:07:00,
2013-04-10 05:22:00,34.5,35.0,29.86,ENE,70,2.0,25.0,100,0.16,,,0.72,weatherlink.com 1.10,2013-04-10 10:22:00,
2013-04-10 05:52:00,34.7,35.0,29.86,NNE,16,2.0,20.0,100,0.10,,,0.77,weatherlink.com 1.10,2013-04-10 10:52:00,
2013-04-10 06:07:00,34.9,35.0,29.91,NE,41,7.0,16.0,100,0.05,,,0.77,weatherlink.com 1.10,2013-04-10 11:07:00,
2013-04-10 06:22:00,35.0,35.0,29.97,West,281,3.0,11.0,100,0.08,,,0.81,weatherlink.com 1.10,2013-04-10 11:22:00,
2013-04-10 06:37:00,35.1,35.0,29.96,NE,47,7.0,8.0,100,0.09,,,0.83,weatherlink.com 1.10,2013-04-10 11:37:00,
2013-04-10 06:52:00,34.6,35.0,29.80,East,90,12.0,28.0,100,0.07,,,0.84,weatherlink.com 1.10,2013-04-10 11:52:00,
2013-04-10 07:07:00,34.7,35.0,29.88,NNE,27,5.0,17.0,100,0.06,,,0.84,weatherlink.com 1.10,2013-04-10 12:07:00,
2013-04-10 07:22:00,34.6,35.0,29.88,NNE,19,4.0,18.0,100,0.03,,,0.84,weatherlink.com 1.10,2013-04-10 12:22:00,
2013-04-10 07:37:00,34.7,35.0,29.88,ENE,61,9.0,14.0,100,0.01,,,0.84,weatherlink.com 1.10,2013-04-10 12:37:00,
2013-04-10 07:52:00,34.9,35.0,29.91,NE,53,4.0,11.0,100,0.00,,,0.84,weatherlink.com 1.10,2013-04-10 12:52:00,
2013-04-10 08:07:00,34.9,35.0,29.88,NE,49,11.0,13.0,100,0.00,,,0.84,weatherlink.com 1.10,2013-04-10 13:07:00,
2013-04-10 08:23:00,35.0,35.0,29.88,ENE,60,10.0,17.0,100,0.00,,,0.84,weatherlink.com 1.10,2013-04-10 13:23:00,
2013-04-10 08:37:00,35.2,35.0,29.88,NE,49,5.0,14.0,100,0.00,,,0.84,weatherlink.com 1.10,2013-04-10 13:37:00,
2013-04-10 08:52:00,35.2,35.0,29.88,NNE,30,5.0,15.0,100,0.00,,,0.84,weatherlink.com 1.10,2013-04-10 13:52:00,
2013-04-10 09:08:00,35.3,35.0,29.91,NE,56,8.0,13.0,100,0.00,,,0.84,weatherlink.com 1.10,2013-04-10 14:08:00,
2013-04-10 09:22:00,35.6,36.0,29.99,SE,136,1.0,6.0,100,0.00,,,0.84,weatherlink.com 1.10,2013-04-10 14:22:00,
2013-04-10 09:38:00,35.9,36.0,30.05,West,271,0.0,9.0,100,0.00,,,0.84,weatherlink.com 1.10,2013-04-10 14:38:00,
2013-04-10 09:52:00,35.8,36.0,29.97,ENE,60,6.0,9.0,100,0.01,,,0.85,weatherlink.com 1.10,2013-04-10 14:52:00,
2013-04-10 10:08:00,35.7,36.0,29.95,NE,53,5.0,12.0,100,0.01,,,0.85,weatherlink.com 1.10,2013-04-10 15:08:00,
2013-04-10 10:23:00,35.7,36.0,29.90,East,84,9.0,16.0,100,0.01,,,0.85,weatherlink.com 1.10,2013-04-10 15:23:00,
2013-04-10 10:38:00,35.8,36.0,29.88,NE,39,13.0,22.0,100,0.01,,,0.85,weatherlink.com 1.10,2013-04-10 15:38:00,
2013-04-10 10:53:00,36.2,36.0,29.85,NNE,27,6.0,23.0,100,0.00,,,0.85,weatherlink.com 1.10,2013-04-10 15:53:00,
2013-04-10 11:08:00,36.7,37.0,29.88,NE,39,10.0,22.0,100,0.00,,,0.85,weatherlink.com 1.10,2013-04-10 16:08:00,
2013-04-10 11:23:00,37.3,37.0,29.89,NE,34,6.0,20.0,99,0.00,,,0.85,weatherlink.com 1.10,2013-04-10 16:23:00,
2013-04-10 11:38:00,37.8,38.0,29.90,NE,54,5.0,17.0,100,0.00,,,0.85,weatherlink.com 1.10,2013-04-10 16:38:00,
2013-04-10 11:53:00,38.0,38.0,29.92,NE,39,8.0,16.0,100,0.00,,,0.85,weatherlink.com 1.10,2013-04-10 16:53:00,
2013-04-10 12:08:00,38.4,38.0,29.91,SE,124,1.0,14.0,100,0.00,,,0.85,weatherlink.com 1.10,2013-04-10 17:08:00,
2013-04-10 12:23:00,38.9,39.0,29.93,NE,49,13.0,15.0,100,0.00,,,0.85,weatherlink.com 1.10,2013-04-10 17:23:00,
2013-04-10 12:38:00,38.8,39.0,29.96,East,101,0.0,9.0,100,0.01,,,0.86,weatherlink.com 1.10,2013-04-10 17:38:00,
2013-04-10 12:53:00,38.6,39.0,29.96,NNW,340,2.0,9.0,100,0.03,,,0.88,weatherlink.com 1.10,2013-04-10 17:53:00,
2013-04-10 13:23:00,38.8,39.0,29.99,NE,41,3.0,6.0,100,0.07,,,0.92,weatherlink.com 1.10,2013-04-10 18:23:00,
2013-04-10 13:38:00,39.0,39.0,29.98,NE,55,2.0,5.0,100,0.08,,,0.94,weatherlink.com 1.10,2013-04-10 18:38:00,
2013-04-10 13:53:00,39.1,39.0,29.98,ENE,63,4.0,6.0,100,0.07,,,0.95,weatherlink.com 1.10,2013-04-10 18:53:00,
2013-04-10 14:08:00,39.3,39.0,29.96,NE,44,8.0,11.0,100,0.05,,,0.95,weatherlink.com 1.10,2013-04-10 19:08:00,
2013-04-10 14:23:00,39.5,40.0,29.94,ENE,68,8.0,13.0,100,0.03,,,0.95,weatherlink.com 1.10,2013-04-10 19:23:00,
2013-04-10 14:38:00,39.5,39.0,29.93,NNE,19,6.0,17.0,99,0.02,,,0.96,weatherlink.com 1.10,2013-04-10 19:38:00,
2013-04-10 14:53:00,39.2,39.0,29.93,NE,39,7.0,13.0,99,0.02,,,0.97,weatherlink.com 1.10,2013-04-10 19:53:00,
2013-04-10 15:08:00,39.3,39.0,29.93,NE,51,5.0,13.0,99,0.03,,,0.98,weatherlink.com 1.10,2013-04-10 20:08:00,
2013-04-10 15:23:00,39.4,39.0,29.92,NE,51,10.0,11.0,99,0.03,,,0.98,weatherlink.com 1.10,2013-04-10 20:23:00,
2013-04-10 15:38:00,39.5,39.0,29.90,NE,46,15.0,18.0,98,0.02,,,0.98,weatherlink.com 1.10,2013-04-10 20:38:00,
2013-04-10 15:53:00,39.4,39.0,29.89,NE,38,7.0,15.0,98,0.01,,,0.98,weatherlink.com 1.10,2013-04-10 20:53:00,
2013-04-10 16:08:00,39.1,38.0,29.87,NE,56,9.0,22.0,96,0.00,,,0.98,weatherlink.com 1.10,2013-04-10 21:08:00,
2013-04-10 16:23:00,39.1,38.0,29.86,NE,54,14.0,20.0,97,0.00,,,0.98,weatherlink.com 1.10,2013-04-10 21:23:00,
2013-04-10 16:38:00,39.0,38.0,29.88,NE,44,0.0,16.0,97,0.00,,,0.98,weatherlink.com 1.10,2013-04-10 21:38:00,
2013-04-10 16:53:00,39.0,39.0,29.87,ENE,57,6.0,13.0,98,0.01,,,0.99,weatherlink.com 1.10,2013-04-10 21:53:00,
2013-04-10 17:08:00,39.1,39.0,29.85,ENE,64,11.0,16.0,98,0.02,,,1.00,weatherlink.com 1.10,2013-04-10 22:08:00,
2013-04-10 17:23:00,39.3,39.0,29.83,NE,47,13.0,23.0,97,0.02,,,1.00,weatherlink.com 1.10,2013-04-10 22:23:00,
2013-04-10 17:53:00,39.7,39.0,29.86,ESE,108,3.0,17.0,97,0.02,,,1.01,weatherlink.com 1.10,2013-04-10 22:53:00,
2013-04-10 18:08:00,40.0,39.0,29.86,ESE,111,12.0,18.0,96,0.01,,,1.01,weatherlink.com 1.10,2013-04-10 23:08:00,
2013-04-10 18:23:00,40.0,39.0,29.84,NE,56,4.0,14.0,97,0.01,,,1.01,weatherlink.com 1.10,2013-04-10 23:23:00,
2013-04-10 18:38:00,40.0,39.0,29.82,ENE,66,11.0,19.0,97,0.00,,,1.01,weatherlink.com 1.10,2013-04-10 23:38:00,
2013-04-10 18:53:00,40.0,39.0,29.83,ENE,65,4.0,16.0,96,0.00,,,1.01,weatherlink.com 1.10,2013-04-10 23:53:00,
2013-04-10 19:08:00,39.9,39.0,29.82,NNE,27,14.0,21.0,96,0.00,,,1.01,weatherlink.com 1.10,2013-04-11 00:08:00,
2013-04-10 19:23:00,39.9,39.0,29.86,NE,47,7.0,16.0,96,0.00,,,1.01,weatherlink.com 1.10,2013-04-11 00:23:00,
2013-04-10 19:38:00,39.7,39.0,29.87,ENE,77,4.0,12.0,96,0.00,,,1.01,weatherlink.com 1.10,2013-04-11 00:38:00,
2013-04-10 19:53:00,39.6,39.0,29.89,NE,51,3.0,17.0,96,0.00,,,1.01,weatherlink.com 1.10,2013-04-11 00:53:00,
2013-04-10 20:08:00,39.3,39.0,29.88,NE,53,9.0,11.0,97,0.01,,,1.02,weatherlink.com 1.10,2013-04-11 01:08:00,
2013-04-10 20:23:00,39.1,39.0,29.88,NE,46,5.0,12.0,98,0.02,,,1.03,weatherlink.com 1.10,2013-04-11 01:23:00,
2013-04-10 20:38:00,38.9,39.0,29.87,NNE,30,4.0,13.0,99,0.04,,,1.05,weatherlink.com 1.10,2013-04-11 01:38:00,
2013-04-10 20:53:00,38.9,39.0,29.86,NE,39,5.0,18.0,99,0.06,,,1.07,weatherlink.com 1.10,2013-04-11 01:53:00,
2013-04-10 21:08:00,38.8,39.0,29.85,NE,36,9.0,18.0,99,0.05,,,1.07,weatherlink.com 1.10,2013-04-11 02:08:00,
2013-04-10 21:23:00,38.7,39.0,29.84,NE,46,19.0,19.0,99,0.06,,,1.09,weatherlink.com 1.10,2013-04-11 02:23:00,
2013-04-10 21:38:00,38.7,39.0,29.84,NNE,25,5.0,16.0,99,0.04,,,1.09,weatherlink.com 1.10,2013-04-11 02:38:00,
2013-04-10 21:53:00,38.7,39.0,29.85,NE,53,11.0,19.0,99,0.04,,,1.11,weatherlink.com 1.10,2013-04-11 02:53:00,
2013-04-10 22:38:00,38.5,38.0,29.86,ENE,61,11.0,14.0,98,0.13,,,1.22,weatherlink.com 1.10,2013-04-11 03:38:00,
2013-04-10 22:53:00,38.3,38.0,29.85,NE,51,8.0,13.0,98,0.14,,,1.25,weatherlink.com 1.10,2013-04-11 03:53:00,
2013-04-10 23:08:00,38.2,38.0,29.84,NE,46,9.0,18.0,98,0.14,,,1.27,weatherlink.com 1.10,2013-04-11 04:08:00,
2013-04-10 23:23:00,38.0,38.0,29.81,NE,56,12.0,18.0,98,0.11,,,1.28,weatherlink.com 1.10,2013-04-11 04:23:00,
2013-04-10 23:38:00,37.9,38.0,29.77,ENE,72,10.0,18.0,99,0.06,,,1.28,weatherlink.com 1.10,2013-04-11 04:38:00,
2013-04-10 23:53:00,37.7,38.0,29.69,NNE,16,7.0,33.0,99,0.03,,,1.28,weatherlink.com 1.10,2013-04-11 04:53:00,